Time;durP1;ratioP1;P1;durP2;ratioP2;P2;SDS_P1;SDS_P2;PMS_P1;PMS_P2;Temp;Humidity;BMP_temperature;BMP_pressure;BME280_temperature;BME280_humidity;BME280_pressure;Samples;Min_cycle;Max_cycle;Signal;HPM_P1;HPM_P2
2021/05/07 00:00:07;;;;;;;8.77;3.60;;;;;;;5.95;59.65;99301.33;1782336;78;22120;-54
2021/05/07 00:02:35;;;;;;;7.27;3.07;;;;;;;5.88;59.68;99306.92;1751947;80;21132;-54
2021/05/07 00:05:03;;;;;;;5.23;2.83;;;;;;;5.83;59.77;99304.86;1782678;78;21119;-54
2021/05/07 00:07:31;;;;;;;8.60;3.30;;;;;;;5.81;59.93;99308.92;1781069;78;21111;-54
2021/05/07 00:09:58;;;;;;;5.43;2.40;;;;;;;5.80;60.24;99310.30;1749913;80;21186;-54
2021/05/07 00:12:25;;;;;;;6.47;2.40;;;;;;;5.78;60.45;99303.71;1748856;80;22461;-54
2021/05/07 00:14:53;;;;;;;3.23;2.00;;;;;;;5.79;60.65;99309.44;1780909;78;21191;-54
2021/05/07 00:17:21;;;;;;;7.63;2.83;;;;;;;5.81;60.90;99305.38;1725637;80;21179;-54
2021/05/07 00:19:49;;;;;;;6.77;2.33;;;;;;;5.84;61.15;99307.48;1782646;78;21085;-54
2021/05/07 00:22:16;;;;;;;3.83;1.70;;;;;;;5.91;61.17;99306.83;1778980;78;21915;-54
2021/05/07 00:24:44;;;;;;;6.73;2.33;;;;;;;6.00;61.42;99299.81;1781746;79;21391;-54
2021/05/07 00:27:14;;;;;;;4.80;1.77;;;;;;;6.06;61.51;99295.11;1754205;80;21012;-54
2021/05/07 00:29:40;;;;;;;5.73;1.97;;;;;;;6.14;61.44;99294.81;1750555;80;21095;-54
2021/05/07 00:32:07;;;;;;;8.47;2.77;;;;;;;6.23;61.46;99295.81;1754504;80;21751;-54
2021/05/07 00:34:35;;;;;;;7.63;2.43;;;;;;;6.30;61.55;99288.42;1755952;79;21110;-54
2021/05/07 00:37:02;;;;;;;7.13;2.67;;;;;;;6.36;61.55;99284.20;1755979;80;21742;-54
2021/05/07 00:39:30;;;;;;;8.57;2.57;;;;;;;6.40;61.58;99283.13;1752085;80;21214;-54
2021/05/07 00:42:04;;;;;;;5.93;3.13;;;;;;;6.41;61.35;99268.84;1779506;78;21785;-54
2021/05/07 00:44:32;;;;;;;7.00;2.53;;;;;;;6.40;61.15;99272.44;1754342;80;21187;-54
2021/05/07 00:47:06;;;;;;;4.57;2.20;;;;;;;6.39;61.25;99270.23;1780200;78;21154;-54
2021/05/07 00:49:36;;;;;;;7.40;2.17;;;;;;;6.39;61.30;99265.34;1779020;78;22082;-54
2021/05/07 00:52:06;;;;;;;3.93;1.87;;;;;;;6.36;61.30;99265.48;1782801;78;21233;-54
2021/05/07 00:54:36;;;;;;;6.13;2.67;;;;;;;6.32;61.30;99274.08;1749293;80;21123;-54
2021/05/07 00:57:04;;;;;;;4.83;1.80;;;;;;;6.28;61.47;99280.48;1781414;78;21668;-54
2021/05/07 00:59:31;;;;;;;6.10;2.20;;;;;;;6.21;61.45;99282.13;1780600;79;21100;-54
2021/05/07 01:01:58;;;;;;;6.57;1.83;;;;;;;6.13;61.56;99284.18;1749097;80;22669;-54
2021/05/07 01:04:26;;;;;;;3.97;1.60;;;;;;;6.03;61.78;99283.22;1775699;78;21172;-54
2021/05/07 01:06:54;;;;;;;4.60;2.00;;;;;;;5.94;61.98;99279.55;1754891;80;21449;-54
2021/05/07 01:09:24;;;;;;;7.83;1.80;;;;;;;5.89;62.11;99289.52;1752474;80;21655;-54
2021/05/07 01:11:52;;;;;;;4.83;1.77;;;;;;;5.82;62.32;99287.09;1755647;80;22526;-54
2021/05/07 01:14:19;;;;;;;4.93;2.50;;;;;;;5.75;62.41;99281.57;1754122;80;21490;-54
2021/05/07 01:16:46;;;;;;;3.20;1.30;;;;;;;5.68;62.65;99283.59;1753921;80;21808;-54
2021/05/07 01:19:14;;;;;;;4.23;1.43;;;;;;;5.63;62.81;99273.06;1770108;79;21168;-54
2021/05/07 01:21:44;;;;;;;5.63;1.40;;;;;;;5.65;62.94;99281.03;1755198;80;21226;-54
2021/05/07 01:24:12;;;;;;;4.57;1.30;;;;;;;5.65;62.84;99278.36;1756777;80;21197;-53
2021/05/07 01:26:43;;;;;;;4.77;1.17;;;;;;;5.65;62.81;99275.69;1753913;80;21396;-54
2021/05/07 01:29:12;;;;;;;6.03;1.53;;;;;;;5.65;62.80;99275.22;1753094;80;21149;-53
2021/05/07 01:31:44;;;;;;;4.07;1.17;;;;;;;5.67;62.84;99276.52;1750046;80;21131;-54
2021/05/07 01:34:12;;;;;;;2.77;1.30;;;;;;;5.66;62.86;99274.30;1752385;80;21198;-54
2021/05/07 01:36:39;;;;;;;5.97;1.40;;;;;;;5.65;62.93;99268.55;1781877;78;21076;-54
2021/05/07 01:39:07;;;;;;;4.43;1.23;;;;;;;5.64;63.02;99273.48;1774994;79;21133;-54
2021/05/07 01:41:35;;;;;;;3.13;1.00;;;;;;;5.62;63.05;99269.11;1781592;78;21200;-54
2021/05/07 01:44:03;;;;;;;2.43;0.80;;;;;;;5.64;63.07;99272.60;1778677;78;22227;-55
2021/05/07 01:46:30;;;;;;;4.80;0.90;;;;;;;5.67;63.01;99268.50;1746472;81;21646;-54
2021/05/07 01:48:58;;;;;;;4.53;0.90;;;;;;;5.71;63.00;99270.11;1782325;78;21178;-54
2021/05/07 01:51:25;;;;;;;2.10;1.10;;;;;;;5.74;62.92;99275.36;1754819;80;21578;-54
2021/05/07 01:53:55;;;;;;;1.87;1.00;;;;;;;5.77;62.80;99278.39;1786621;78;21138;-54
2021/05/07 01:56:25;;;;;;;3.23;0.90;;;;;;;5.79;62.70;99281.39;1787773;78;21503;-52
2021/05/07 01:58:53;;;;;;;3.53;0.90;;;;;;;5.81;62.62;99281.34;1784112;78;21453;-54
2021/05/07 02:01:22;;;;;;;2.43;0.90;;;;;;;5.82;62.64;99282.63;1787710;78;21170;-52
2021/05/07 02:03:50;;;;;;;5.10;1.67;;;;;;;5.83;62.60;99280.36;1783831;78;21847;-52
2021/05/07 02:06:19;;;;;;;3.57;1.20;;;;;;;5.86;62.70;99284.27;1783354;78;21190;-53
2021/05/07 02:08:48;;;;;;;2.23;1.30;;;;;;;5.88;62.80;99289.56;1785601;78;22956;-53
2021/05/07 02:11:16;;;;;;;2.77;1.10;;;;;;;5.91;62.84;99289.00;1784112;78;21225;-53
2021/05/07 02:13:43;;;;;;;4.93;1.20;;;;;;;5.94;62.97;99282.69;1785087;78;21318;-52
2021/05/07 02:16:12;;;;;;;4.77;1.40;;;;;;;5.98;63.18;99284.30;1785656;78;22152;-54
2021/05/07 02:18:40;;;;;;;5.50;1.40;;;;;;;6.01;63.40;99285.53;1767088;79;21099;-54
2021/05/07 02:21:11;;;;;;;3.37;1.30;;;;;;;6.04;63.51;99282.72;1768745;79;21435;-52
2021/05/07 02:23:38;;;;;;;5.97;1.30;;;;;;;6.08;63.49;99283.91;1766265;79;21452;-54
2021/05/07 02:26:06;;;;;;;6.50;1.30;;;;;;;6.13;63.53;99286.39;1738667;80;21150;-51
2021/05/07 02:28:38;;;;;;;3.27;1.27;;;;;;;6.16;63.71;99276.94;1766985;79;21807;-52
2021/05/07 02:31:05;;;;;;;4.43;1.00;;;;;;;6.21;63.58;99279.45;1767677;79;21114;-52
2021/05/07 02:33:36;;;;;;;7.70;1.70;;;;;;;6.25;63.43;99277.05;1766223;79;21159;-53
2021/05/07 02:36:02;;;;;;;3.83;1.27;;;;;;;6.29;63.34;99284.03;1768523;79;21132;-51
2021/05/07 02:38:30;;;;;;;7.77;1.33;;;;;;;6.33;63.16;99278.96;1766764;79;21988;-53
2021/05/07 02:40:57;;;;;;;6.77;1.80;;;;;;;6.34;63.23;99279.37;1767265;79;21884;-53
2021/05/07 02:43:25;;;;;;;5.70;1.50;;;;;;;6.32;63.53;99275.88;1788383;78;21170;-52
2021/05/07 02:45:52;;;;;;;3.30;1.30;;;;;;;6.30;63.70;99275.93;1788499;79;21146;-52
2021/05/07 02:48:20;;;;;;;1.97;1.20;;;;;;;6.34;63.74;99276.70;1785946;79;21110;-54
2021/05/07 02:50:47;;;;;;;3.90;0.90;;;;;;;6.38;63.63;99276.50;1786690;78;21119;-51
2021/05/07 02:53:16;;;;;;;8.67;1.40;;;;;;;6.46;63.49;99270.89;1787407;78;21131;-54
2021/05/07 02:55:44;;;;;;;9.33;1.27;;;;;;;6.53;63.10;99274.19;1788021;78;21131;-52
2021/05/07 02:58:12;;;;;;;5.20;1.60;;;;;;;6.59;62.31;99275.27;1748510;81;21123;-53
2021/05/07 03:00:39;;;;;;;5.13;1.63;;;;;;;6.66;61.61;99278.97;1765688;79;21542;-54
2021/05/07 03:03:07;;;;;;;5.03;1.47;;;;;;;6.72;61.46;99272.53;1788508;78;21455;-54
2021/05/07 03:05:34;;;;;;;4.83;1.60;;;;;;;6.78;60.88;99282.51;1786536;78;21577;-51
2021/05/07 03:08:01;;;;;;;4.10;1.20;;;;;;;6.82;60.13;99281.44;1786273;78;21127;-54
2021/05/07 03:10:29;;;;;;;2.97;1.47;;;;;;;6.88;60.12;99286.15;1787555;78;21157;-52
2021/05/07 03:12:56;;;;;;;4.07;1.23;;;;;;;6.92;59.99;99278.39;1753155;80;21490;-54
2021/05/07 03:15:23;;;;;;;4.23;1.50;;;;;;;6.94;59.94;99285.43;1786249;78;21488;-51
2021/05/07 03:17:53;;;;;;;2.33;1.27;;;;;;;6.97;60.44;99279.09;1759819;79;21385;-51
2021/05/07 03:20:19;;;;;;;7.60;0.80;;;;;;;7.01;60.44;99285.58;1785520;79;21775;-51
2021/05/07 03:22:47;;;;;;;4.30;0.90;;;;;;;7.05;60.25;99285.00;1787679;78;21129;-53
2021/05/07 03:25:14;;;;;;;2.40;0.80;;;;;;;7.09;59.84;99286.59;1765385;79;21214;-52
2021/05/07 03:27:42;;;;;;;4.60;0.90;;;;;;;7.14;59.27;99286.83;1764709;79;21230;-52
2021/05/07 03:30:12;;;;;;;3.37;0.90;;;;;;;7.23;59.20;99293.11;1765571;79;21380;-53
2021/05/07 03:32:40;;;;;;;1.13;0.60;;;;;;;7.33;59.02;99300.28;1768548;79;21126;-53
2021/05/07 03:35:10;;;;;;;2.50;0.50;;;;;;;7.41;58.01;99305.31;1764715;79;21184;-55
2021/05/07 03:40:08;;;;;;;5.93;0.50;;;;;;;7.67;56.06;99298.84;1868992;75;26930;-53
2021/05/07 03:42:36;;;;;;;2.83;0.50;;;;;;;7.76;55.65;99301.12;1823430;75;20985;-54
2021/05/07 03:45:05;;;;;;;3.77;0.53;;;;;;;7.88;55.35;99293.89;1807896;77;21361;-55
2021/05/07 03:47:33;;;;;;;2.30;0.40;;;;;;;8.03;54.87;99287.84;1810420;77;21008;-54
2021/05/07 03:50:00;;;;;;;2.27;0.57;;;;;;;8.18;54.11;99289.81;1808419;77;20984;-53
2021/05/07 03:52:27;;;;;;;4.50;0.50;;;;;;;8.34;53.86;99278.80;1809124;77;20969;-53
2021/05/07 03:54:55;;;;;;;1.93;0.50;;;;;;;8.49;53.29;99286.63;1810598;77;21139;-54
2021/05/07 03:57:25;;;;;;;2.73;0.50;;;;;;;8.62;52.80;99276.17;1811866;77;21372;-54
2021/05/07 03:59:53;;;;;;;3.33;0.43;;;;;;;8.72;52.81;99283.71;1809361;77;21155;-53
2021/05/07 04:02:21;;;;;;;2.47;0.50;;;;;;;8.81;52.04;99287.77;1810874;77;21307;-55
2021/05/07 04:04:54;;;;;;;1.20;0.50;;;;;;;8.89;52.03;99290.95;1810394;77;21171;-53
2021/05/07 04:07:22;;;;;;;8.23;0.50;;;;;;;9.02;51.67;99296.10;1811277;77;22226;-54
2021/05/07 04:13:29;;;;;;;0.47;0.40;;;;;;;9.33;51.10;99286.06;1807559;77;21164;-53
2021/05/07 04:14:53;;;;;;;0.73;0.40;;;;;;;9.47;50.43;99296.97;1812364;77;21231;-52
2021/05/07 04:17:20;;;;;;;1.47;0.47;;;;;;;9.57;49.80;99290.66;1810748;77;21150;-53
2021/05/07 04:19:48;;;;;;;4.73;0.53;;;;;;;9.64;49.31;99289.86;1810635;77;21223;-55
2021/05/07 04:22:15;;;;;;;8.30;0.77;;;;;;;9.70;49.30;99291.75;1814839;77;22026;-54
2021/05/07 04:24:43;;;;;;;1.77;0.70;;;;;;;9.76;49.23;99293.27;1807219;77;21206;-54
2021/05/07 04:27:11;;;;;;;6.67;0.60;;;;;;;9.80;48.89;99298.39;1809193;77;21166;-55
2021/05/07 04:29:40;;;;;;;2.10;0.40;;;;;;;9.85;48.78;99295.00;1812717;77;21227;-54
2021/05/07 04:32:07;;;;;;;2.37;0.60;;;;;;;9.97;48.56;99292.59;1811860;77;20957;-53
2021/05/07 04:34:34;;;;;;;0.90;0.40;;;;;;;10.08;48.32;99286.18;1812325;77;21204;-54
2021/05/07 04:37:02;;;;;;;2.37;0.50;;;;;;;10.25;48.43;99290.21;1807819;77;21179;-55
2021/05/07 04:39:29;;;;;;;1.83;0.40;;;;;;;10.44;48.06;99289.61;1823549;76;21232;-54
2021/05/07 04:41:58;;;;;;;1.50;0.40;;;;;;;10.66;47.01;99291.09;1826170;76;21612;-54
2021/05/07 04:44:28;;;;;;;1.57;0.60;;;;;;;10.84;46.34;99280.64;1813567;77;21163;-53
2021/05/07 04:46:59;;;;;;;0.80;0.40;;;;;;;10.99;45.86;99275.72;1808383;77;21558;-54
2021/05/07 04:49:25;;;;;;;2.30;0.50;;;;;;;11.10;45.58;99272.42;1818215;77;21178;-56
2021/05/07 04:51:52;;;;;;;0.77;0.40;;;;;;;11.16;45.47;99271.58;1810799;77;20981;-54
2021/05/07 04:54:19;;;;;;;6.80;0.60;;;;;;;11.21;44.96;99276.71;1787282;78;21648;-55
2021/05/07 04:56:46;;;;;;;20.53;0.63;;;;;;;11.22;44.73;99273.06;1809415;77;21162;-55
2021/05/07 04:59:14;;;;;;;1.77;0.60;;;;;;;11.25;44.19;99282.30;1810439;77;22293;-54
2021/05/07 05:01:41;;;;;;;1.40;0.60;;;;;;;11.27;44.27;99273.17;1810401;77;21538;-56
2021/05/07 05:04:09;;;;;;;3.80;0.57;;;;;;;11.36;44.84;99277.16;1812248;77;21131;-55
2021/05/07 05:06:36;;;;;;;2.33;0.60;;;;;;;11.45;44.74;99273.92;1812365;77;21218;-55
2021/05/07 05:09:04;;;;;;;2.90;0.60;;;;;;;11.57;44.75;99273.17;1806767;77;21623;-56
2021/05/07 05:11:32;;;;;;;3.27;0.60;;;;;;;11.66;44.61;99277.14;1808685;77;21740;-55
2021/05/07 05:14:00;;;;;;;1.87;0.70;;;;;;;11.77;44.18;99274.71;1810110;77;21211;-54
2021/05/07 05:16:27;;;;;;;2.60;0.50;;;;;;;11.85;44.02;99271.06;1811371;77;21688;-55
2021/05/07 05:18:55;;;;;;;1.67;0.50;;;;;;;11.96;43.34;99272.64;1806964;77;21568;-55
2021/05/07 05:21:22;;;;;;;3.10;0.53;;;;;;;12.08;42.81;99271.86;1810037;77;21182;-56
2021/05/07 05:23:50;;;;;;;1.43;0.50;;;;;;;12.22;42.98;99266.98;1808641;77;21234;-54
2021/05/07 05:26:17;;;;;;;2.70;0.50;;;;;;;12.37;43.14;99270.05;1800509;77;21191;-55
2021/05/07 05:28:45;;;;;;;3.33;0.53;;;;;;;12.54;42.78;99270.81;1809216;77;21143;-53
2021/05/07 05:31:13;;;;;;;1.70;0.50;;;;;;;12.69;42.27;99268.47;1806913;77;22265;-56
2021/05/07 05:33:40;;;;;;;1.55;0.50;;;;;;;12.85;41.60;99267.86;1789319;78;21229;-55
2021/05/07 05:36:08;;;;;;;1.55;0.50;;;;;;;13.00;41.05;99260.61;1777558;79;21398;-54
2021/05/07 05:38:36;;;;;;;0.60;0.40;;;;;;;13.14;40.71;99259.23;1757662;79;21165;-54
2021/05/07 05:41:03;;;;;;;2.55;0.40;;;;;;;13.29;40.51;99257.34;1756100;80;21543;-55
2021/05/07 05:43:31;;;;;;;3.67;0.50;;;;;;;13.40;40.85;99254.79;1759650;80;21499;-54
2021/05/07 05:45:58;;;;;;;3.05;0.45;;;;;;;13.51;40.46;99254.45;1752461;80;21106;-55
2021/05/07 05:48:25;;;;;;;1.77;0.40;;;;;;;13.60;40.03;99253.83;1765711;80;21372;-55
2021/05/07 05:50:52;;;;;;;1.00;0.50;;;;;;;13.68;40.12;99258.71;1804876;77;21550;-56
2021/05/07 05:53:20;;;;;;;2.52;0.50;;;;;;;13.73;39.97;99257.03;1752500;80;21155;-56
2021/05/07 05:55:47;;;;;;;1.07;0.40;;;;;;;13.78;40.00;99254.37;1806036;77;21104;-54
2021/05/07 05:58:15;;;;;;;1.47;0.47;;;;;;;13.84;39.41;99256.68;1800371;77;21195;-55
2021/05/07 06:00:42;;;;;;;1.65;0.50;;;;;;;13.91;38.33;99260.69;1802165;77;22443;-55
2021/05/07 06:03:10;;;;;;;3.02;0.47;;;;;;;13.98;38.79;99257.06;1752548;80;21506;-56
2021/05/07 06:05:37;;;;;;;4.30;1.05;;;;;;;14.09;38.37;99255.83;1756087;80;21179;-54
2021/05/07 06:08:04;;;;;;;0.50;0.30;;;;;;;14.19;38.85;99254.70;1803860;77;21383;-57
2021/05/07 06:10:32;;;;;;;2.02;0.50;;;;;;;14.31;39.17;99255.16;1749211;80;21464;-56
2021/05/07 06:12:59;;;;;;;2.85;0.40;;;;;;;14.41;38.39;99258.11;1800840;77;21471;-54
2021/05/07 06:15:27;;;;;;;1.30;0.40;;;;;;;14.51;37.62;99257.84;1782101;78;21134;-57
2021/05/07 06:17:54;;;;;;;2.42;0.72;;;;;;;14.59;36.92;99251.38;1799152;77;21120;-55
2021/05/07 06:20:21;;;;;;;0.78;0.33;;;;;;;14.67;36.44;99251.69;1749354;80;21661;-57
2021/05/07 06:22:49;;;;;;;2.37;0.40;;;;;;;14.73;36.64;99248.52;1756983;80;21126;-55
2021/05/07 06:25:18;;;;;;;3.10;0.40;;;;;;;14.79;36.44;99249.45;1784649;78;21621;-54
2021/05/07 06:27:45;;;;;;;3.33;0.30;;;;;;;14.85;35.45;99248.98;1784756;78;21147;-57
2021/05/07 06:30:14;;;;;;;0.80;0.30;;;;;;;14.89;35.32;99255.03;1761899;80;21578;-55
2021/05/07 06:32:41;;;;;;;0.47;0.30;;;;;;;14.94;34.99;99251.51;1798616;77;21116;-55
2021/05/07 06:35:10;;;;;;;0.85;0.50;;;;;;;14.96;34.84;99253.14;1797795;77;21143;-55
2021/05/07 06:37:40;;;;;;;4.90;1.00;;;;;;;14.99;35.10;99248.82;1767094;80;21171;-55
2021/05/07 06:40:08;;;;;;;0.70;0.37;;;;;;;15.04;34.70;99245.30;1802946;77;21592;-54
2021/05/07 06:42:37;;;;;;;0.98;0.30;;;;;;;15.07;35.31;99250.95;1805062;77;21151;-57
2021/05/07 06:45:07;;;;;;;2.00;0.40;;;;;;;15.12;34.93;99246.95;1807697;77;21202;-56
2021/05/07 06:47:35;;;;;;;2.37;0.30;;;;;;;15.19;34.73;99247.34;1810096;77;21159;-56
2021/05/07 06:50:04;;;;;;;2.92;0.65;;;;;;;15.25;34.95;99239.23;1809616;77;21820;-55
2021/05/07 06:52:32;;;;;;;2.25;0.30;;;;;;;15.29;34.79;99238.90;1804731;77;21613;-55
2021/05/07 06:55:00;;;;;;;0.60;0.20;;;;;;;15.34;34.91;99235.34;1805501;77;21151;-57
2021/05/07 06:57:27;;;;;;;0.75;0.30;;;;;;;15.41;34.73;99228.95;1806308;77;20929;-54
2021/05/07 06:59:55;;;;;;;5.30;0.30;;;;;;;15.46;34.89;99229.48;1815018;77;21171;-56
2021/05/07 07:02:22;;;;;;;0.45;0.20;;;;;;;15.50;34.63;99228.25;1803592;77;21672;-57
2021/05/07 07:04:50;;;;;;;0.40;0.20;;;;;;;15.53;34.33;99234.80;1773570;79;21139;-55
2021/05/07 07:07:18;;;;;;;2.27;0.20;;;;;;;15.57;34.64;99230.05;1751281;80;21746;-55
2021/05/07 07:09:45;;;;;;;2.95;0.42;;;;;;;15.60;34.17;99219.81;1751842;80;21127;-56
2021/05/07 07:12:13;;;;;;;0.60;0.20;;;;;;;15.61;33.64;99224.75;1803962;77;21115;-56
2021/05/07 07:14:41;;;;;;;6.85;0.30;;;;;;;15.59;33.97;99226.22;1811862;77;22807;-56
2021/05/07 07:17:08;;;;;;;0.60;0.20;;;;;;;15.59;34.48;99226.22;1807613;77;21192;-57
2021/05/07 07:19:36;;;;;;;4.53;0.68;;;;;;;15.60;34.64;99228.44;1804889;77;21163;-54
2021/05/07 07:22:06;;;;;;;0.80;0.20;;;;;;;15.60;34.90;99225.73;1807271;77;21155;-57
2021/05/07 07:25:45;;;;;;;0.97;0.20;;;;;;;15.62;34.32;99226.00;1751190;79;24901;-55
2021/05/07 07:28:17;;;;;;;0.68;0.20;;;;;;;15.57;33.44;99229.53;1726205;82;20994;-56
2021/05/07 07:30:42;;;;;;;0.40;0.20;;;;;;;15.55;33.80;99216.61;1727702;80;21374;-55
2021/05/07 07:33:10;;;;;;;0.93;0.30;;;;;;;15.55;34.32;99222.52;1728234;80;21371;-55
2021/05/07 07:35:38;;;;;;;0.98;0.20;;;;;;;15.55;34.47;99211.18;1722086;80;21246;-56
2021/05/07 07:38:05;;;;;;;1.72;0.20;;;;;;;15.57;34.53;99213.78;1725250;80;21203;-56
2021/05/07 07:40:32;;;;;;;0.30;0.20;;;;;;;15.57;34.59;99215.14;1724726;80;21208;-56
2021/05/07 07:42:59;;;;;;;11.30;0.23;;;;;;;15.57;34.67;99216.49;1711747;81;21393;-53
2021/05/07 07:45:27;;;;;;;0.70;0.20;;;;;;;15.56;34.69;99222.89;1701108;82;21653;-54
2021/05/07 07:47:54;;;;;;;0.93;0.20;;;;;;;15.54;34.89;99224.37;1708449;82;21166;-56
2021/05/07 07:50:22;;;;;;;3.52;0.30;;;;;;;15.53;34.99;99218.53;1707058;82;21183;-54
2021/05/07 07:52:49;;;;;;;2.25;0.20;;;;;;;15.53;35.19;99214.46;1703437;82;21179;-56
2021/05/07 07:55:17;;;;;;;0.47;0.20;;;;;;;15.55;35.48;99208.95;1703895;83;21803;-55
2021/05/07 07:57:44;;;;;;;0.50;0.20;;;;;;;15.57;35.55;99205.12;1703486;82;21202;-57
2021/05/07 08:00:13;;;;;;;1.75;0.30;;;;;;;15.59;35.53;99206.36;1708803;82;21555;-57
2021/05/07 08:02:41;;;;;;;1.72;0.30;;;;;;;15.60;35.56;99208.96;1711130;82;21673;-54
2021/05/07 08:05:10;;;;;;;0.45;0.20;;;;;;;15.60;35.37;99204.89;1707034;82;21192;-56
2021/05/07 08:07:38;;;;;;;0.50;0.20;;;;;;;15.61;35.20;99207.11;1711459;82;21663;-54
2021/05/07 08:10:07;;;;;;;4.60;0.20;;;;;;;15.61;35.15;99211.19;1705462;82;21183;-56
2021/05/07 08:12:36;;;;;;;3.17;0.20;;;;;;;15.60;35.15;99208.09;1656503;85;21238;-55
2021/05/07 08:15:04;;;;;;;2.45;0.33;;;;;;;15.61;35.20;99217.97;1674229;83;21194;-55
2021/05/07 08:17:32;;;;;;;1.20;0.20;;;;;;;15.64;35.58;99220.45;1655137;85;21208;-56
2021/05/07 08:20:03;;;;;;;0.45;0.10;;;;;;;15.67;34.76;99208.86;1666608;84;21943;-54
2021/05/07 08:22:31;;;;;;;5.37;0.20;;;;;;;15.69;34.30;99212.32;1668995;83;21154;-56
2021/05/07 08:24:58;;;;;;;2.72;0.10;;;;;;;15.71;34.52;99216.28;1661994;84;22082;-54
2021/05/07 08:27:26;;;;;;;0.20;0.20;;;;;;;15.74;34.47;99209.23;1638998;85;21164;-54
2021/05/07 08:29:55;;;;;;;0.78;0.10;;;;;;;15.74;34.67;99199.25;1692647;82;21111;-57
2021/05/07 08:32:22;;;;;;;3.50;0.20;;;;;;;15.79;34.86;99200.27;1690317;82;21891;-55
2021/05/07 08:34:51;;;;;;;0.50;0.10;;;;;;;15.81;34.92;99186.95;1691085;82;21164;-56
2021/05/07 08:37:18;;;;;;;1.40;0.10;;;;;;;15.83;34.61;99197.17;1687416;82;21151;-56
2021/05/07 08:39:47;;;;;;;1.67;0.10;;;;;;;15.85;34.80;99202.00;1691221;82;21198;-56
2021/05/07 08:42:15;;;;;;;0.20;0.10;;;;;;;15.85;34.79;99196.57;1691904;82;21101;-57
2021/05/07 08:44:42;;;;;;;0.60;0.20;;;;;;;15.85;34.19;99199.77;1689627;83;22887;-55
2021/05/07 08:47:10;;;;;;;2.15;0.30;;;;;;;15.82;34.50;99196.80;1691754;82;21594;-56
2021/05/07 08:49:37;;;;;;;0.72;0.10;;;;;;;15.79;34.78;99192.13;1690594;82;21885;-55
2021/05/07 08:52:05;;;;;;;0.30;0.15;;;;;;;15.80;35.17;99189.30;1669679;83;21100;-55
2021/05/07 08:54:32;;;;;;;0.30;0.10;;;;;;;15.82;35.46;99188.66;1694508;82;21114;-55
2021/05/07 08:56:59;;;;;;;0.20;0.10;;;;;;;15.87;35.46;99185.59;1675682;83;21919;-54
2021/05/07 08:59:27;;;;;;;1.17;0.23;;;;;;;15.91;35.18;99174.02;1688472;82;21156;-56
2021/05/07 09:01:56;;;;;;;1.05;0.23;;;;;;;15.96;35.08;99167.72;1693635;82;21638;-56
2021/05/07 09:04:26;;;;;;;1.77;0.20;;;;;;;15.99;35.18;99169.69;1690536;82;21156;-54
2021/05/07 09:06:54;;;;;;;3.98;0.40;;;;;;;16.07;35.15;99174.03;1693991;82;21117;-54
2021/05/07 09:09:29;;;;;;;1.15;0.20;;;;;;;16.15;35.17;99170.22;1676510;83;22299;-57
2021/05/07 09:12:00;;;;;;;2.55;0.17;;;;;;;16.24;35.15;99161.33;1691315;82;21816;-55
2021/05/07 09:14:28;;;;;;;7.60;0.20;;;;;;;16.32;35.49;99178.85;1690478;82;21196;-56
2021/05/07 09:17:01;;;;;;;0.60;0.20;;;;;;;16.40;35.00;99156.01;1696508;82;21136;-53
2021/05/07 09:19:37;;;;;;;0.20;0.10;;;;;;;16.48;35.19;99154.39;1692945;82;21210;-56
2021/05/07 09:22:04;;;;;;;0.45;0.20;;;;;;;16.57;34.96;99148.70;1687869;82;21609;-56
2021/05/07 09:24:32;;;;;;;3.62;0.20;;;;;;;16.68;34.98;99143.25;1690954;82;21223;-57
2021/05/07 09:27:06;;;;;;;0.50;0.17;;;;;;;16.79;35.13;99151.39;1693665;82;21220;-56
2021/05/07 09:29:38;;;;;;;1.27;0.30;;;;;;;16.87;34.96;99133.94;1689091;82;21188;-54
2021/05/07 09:32:05;;;;;;;1.42;0.10;;;;;;;16.94;35.32;99137.00;1688375;82;21187;-55
2021/05/07 09:34:35;;;;;;;1.02;0.10;;;;;;;17.00;35.19;99122.42;1690790;82;21567;-54
2021/05/07 09:37:22;;;;;;;0.78;0.10;;;;;;;17.03;34.76;99104.97;1691964;82;22287;-57
2021/05/07 09:39:51;;;;;;;0.25;0.10;;;;;;;17.02;35.07;99102.73;1692003;82;21221;-55
2021/05/07 09:42:24;;;;;;;0.20;0.10;;;;;;;17.06;35.11;99099.77;1688825;82;21426;-56
2021/05/07 09:44:51;;;;;;;0.20;0.10;;;;;;;17.13;35.50;99095.04;1690994;82;21135;-54
2021/05/07 09:47:18;;;;;;;0.57;0.10;;;;;;;17.22;35.26;99080.66;1690141;82;21351;-53
2021/05/07 09:49:46;;;;;;;2.05;0.20;;;;;;;17.27;34.82;99077.02;1689861;82;21160;-55
2021/05/07 09:52:15;;;;;;;1.98;0.10;;;;;;;17.31;34.17;99087.16;1691958;82;21167;-52
2021/05/07 09:54:50;;;;;;;1.42;0.20;;;;;;;17.31;34.02;99080.36;1691363;82;21175;-57
2021/05/07 09:57:19;;;;;;;0.60;0.20;;;;;;;17.30;33.77;99070.47;1687450;82;21238;-57
2021/05/07 09:59:48;;;;;;;0.40;0.10;;;;;;;17.25;33.47;99073.60;1689401;82;21521;-56
2021/05/07 10:02:15;;;;;;;0.82;0.20;;;;;;;17.23;33.55;99067.92;1693517;82;21195;-56
2021/05/07 10:04:43;;;;;;;6.17;0.20;;;;;;;17.22;33.63;99072.98;1690759;82;21649;-57
2021/05/07 10:07:11;;;;;;;2.10;0.10;;;;;;;17.19;32.89;99061.87;1691123;82;21227;-57
2021/05/07 10:09:38;;;;;;;0.53;0.20;;;;;;;17.17;33.46;99077.98;1690547;82;21242;-57
2021/05/07 10:12:07;;;;;;;0.30;0.20;;;;;;;17.16;33.77;99074.39;1656894;84;21780;-57
2021/05/07 10:14:44;;;;;;;3.02;0.20;;;;;;;17.17;33.19;99070.68;1653984;84;21266;-55
2021/05/07 10:17:12;;;;;;;0.30;0.10;;;;;;;17.15;32.80;99065.00;1654770;84;22256;-56
2021/05/07 10:19:42;;;;;;;1.10;0.20;;;;;;;17.14;32.77;99067.34;1653428;84;21191;-55
2021/05/07 10:22:12;;;;;;;0.50;0.10;;;;;;;17.10;31.98;99057.22;1652705;84;21797;-56
2021/05/07 10:24:39;;;;;;;0.72;0.20;;;;;;;17.02;31.01;99049.72;1654265;84;21243;-56
2021/05/07 10:27:18;;;;;;;0.82;0.20;;;;;;;16.96;31.80;99046.18;1641783;85;21518;-55
2021/05/07 10:29:56;;;;;;;0.65;0.20;;;;;;;16.95;32.00;99044.95;1670996;83;21752;-53
2021/05/07 10:32:36;;;;;;;1.65;0.13;;;;;;;16.94;31.90;99048.66;1655234;84;21678;-54
2021/05/07 10:35:05;;;;;;;2.67;0.30;;;;;;;16.94;31.86;99036.42;1640762;85;21224;-52
2021/05/07 10:37:41;;;;;;;0.93;0.10;;;;;;;16.94;32.02;99030.48;1666191;83;21613;-54
2021/05/07 10:40:12;;;;;;;1.47;0.30;;;;;;;16.96;32.25;99027.15;1655141;84;21264;-56
2021/05/07 10:42:39;;;;;;;2.10;0.20;;;;;;;17.01;32.41;99022.70;1644538;85;21690;-54
2021/05/07 10:45:08;;;;;;;1.22;0.20;;;;;;;17.05;32.28;99014.62;1648241;85;21186;-55
2021/05/07 10:47:37;;;;;;;0.20;0.10;;;;;;;17.11;32.40;99009.14;1656616;84;21175;-55
2021/05/07 10:50:19;;;;;;;7.03;0.20;;;;;;;17.17;32.16;98998.61;1656243;84;22091;-53
2021/05/07 10:52:47;;;;;;;1.20;0.20;;;;;;;17.22;31.98;98999.06;1667934;83;21194;-53
2021/05/07 10:55:15;;;;;;;2.05;0.20;;;;;;;17.29;32.06;98990.72;1647754;85;21580;-56
2021/05/07 10:57:42;;;;;;;1.50;0.20;;;;;;;17.35;32.35;98988.81;1659255;84;21476;-54
2021/05/07 11:00:15;;;;;;;0.23;0.10;;;;;;;17.41;32.59;98982.00;1638011;85;21237;-54
2021/05/07 11:02:54;;;;;;;0.20;0.10;;;;;;;17.48;32.89;99000.86;1667367;83;21709;-55
2021/05/07 11:05:38;;;;;;;0.68;0.15;;;;;;;17.53;32.15;98984.11;1656905;84;21528;-54
2021/05/07 11:08:07;;;;;;;3.70;0.20;;;;;;;17.55;32.46;98980.76;1643593;85;21537;-53
2021/05/07 11:10:35;;;;;;;2.22;0.20;;;;;;;17.54;32.79;98988.55;1664688;83;21633;-54
2021/05/07 11:13:03;;;;;;;2.92;0.20;;;;;;;17.54;32.79;98988.55;1644704;85;21135;-56
2021/05/07 11:15:30;;;;;;;1.85;0.10;;;;;;;17.53;33.00;98982.25;1656531;84;22430;-56
2021/05/07 11:18:05;;;;;;;0.72;0.20;;;;;;;17.55;33.38;98979.40;1665678;83;21233;-54
2021/05/07 11:20:40;;;;;;;1.62;0.23;;;;;;;17.57;33.43;98976.91;1659665;84;21487;-53
2021/05/07 11:25:45;;;;;;;0.30;0.10;;;;;;;17.61;33.88;98952.49;1868869;75;23909;-55
2021/05/07 11:28:17;;;;;;;1.75;0.20;;;;;;;17.61;33.88;98952.49;1802032;78;21182;-57
2021/05/07 11:30:48;;;;;;;2.87;0.10;;;;;;;17.60;34.37;98941.77;1806307;78;21192;-57
2021/05/07 11:33:17;;;;;;;1.12;0.20;;;;;;;17.66;34.32;98938.03;1785786;78;20965;-56
2021/05/07 11:35:46;;;;;;;7.20;0.20;;;;;;;17.70;34.41;98930.42;1802605;78;21337;-55
2021/05/07 11:38:16;;;;;;;2.83;0.23;;;;;;;17.76;34.67;98934.84;1778555;78;20998;-56
2021/05/07 11:40:43;;;;;;;1.80;0.20;;;;;;;17.80;34.84;98919.07;1787104;79;21408;-56
2021/05/07 11:43:12;;;;;;;0.60;0.25;;;;;;;17.84;35.06;98918.30;1782173;78;22341;-55
2021/05/07 11:45:40;;;;;;;0.45;0.20;;;;;;;17.87;35.17;98906.62;1778008;79;21369;-55
2021/05/07 11:48:10;;;;;;;2.25;0.20;;;;;;;17.87;35.17;98905.75;1779740;79;21107;-56
2021/05/07 11:50:38;;;;;;;0.45;0.20;;;;;;;17.87;35.17;98905.75;1779001;79;21107;-56